Time;durP1;ratioP1;P1;durP2;ratioP2;P2;SDS_P1;SDS_P2;PMS_P1;PMS_P2;Temp;Humidity;BMP_temperature;BMP_pressure;BME280_temperature;BME280_humidity;BME280_pressure;Samples;Min_cycle;Max_cycle;Signal;HPM_P1;HPM_P2
2023/08/04 00:00:45;;;;;;;1.40;1.30;;;22.80;49.50;;;;;;5005126;28;20246;-62
2023/08/04 00:03:10;;;;;;;1.30;1.20;;;22.80;49.50;;;;;;5030591;28;20214;-63
2023/08/04 00:05:36;;;;;;;1.53;1.20;;;22.80;49.50;;;;;;5031062;28;20709;-62
2023/08/04 00:08:01;;;;;;;1.40;1.30;;;22.80;49.50;;;;;;5025350;28;20273;-61
2023/08/04 00:10:27;;;;;;;1.30;1.20;;;22.80;49.50;;;;;;5023213;28;20227;-61
2023/08/04 00:12:53;;;;;;;1.43;1.33;;;22.80;49.50;;;;;;5015155;28;20305;-61
2023/08/04 00:15:18;;;;;;;1.37;1.27;;;22.80;49.50;;;;;;5029946;28;20219;-61
2023/08/04 00:17:44;;;;;;;1.30;1.20;;;22.80;49.50;;;;;;5030258;28;20325;-61
2023/08/04 00:20:11;;;;;;;1.23;1.13;;;22.80;49.50;;;;;;5023456;28;20673;-62
2023/08/04 00:22:37;;;;;;;1.33;1.23;;;22.80;49.60;;;;;;5024203;28;20714;-61
2023/08/04 00:25:03;;;;;;;1.27;1.17;;;22.80;49.50;;;;;;5027208;28;20456;-62
2023/08/04 00:27:29;;;;;;;1.27;1.17;;;22.80;49.50;;;;;;5029203;28;20475;-60
2023/08/04 00:29:54;;;;;;;1.20;1.10;;;22.80;49.50;;;;;;5028231;28;20456;-61
2023/08/04 00:32:21;;;;;;;1.30;1.20;;;22.80;50.30;;;;;;5032996;28;20669;-61
2023/08/04 00:34:47;;;;;;;1.30;1.20;;;22.80;49.50;;;;;;5010364;28;20231;-61
2023/08/04 00:37:12;;;;;;;1.30;1.20;;;22.80;49.60;;;;;;5014409;28;20465;-61
2023/08/04 00:39:38;;;;;;;1.10;1.00;;;22.80;49.50;;;;;;5028871;28;20233;-62
2023/08/04 00:42:03;;;;;;;1.50;1.40;;;22.80;49.50;;;;;;5030295;28;20256;-61
2023/08/04 00:44:30;;;;;;;1.23;1.13;;;22.80;49.50;;;;;;5033274;28;20226;-61
2023/08/04 00:46:56;;;;;;;1.23;1.13;;;22.80;49.60;;;;;;5019319;28;20269;-61
2023/08/04 00:49:21;;;;;;;1.53;1.43;;;22.80;49.50;;;;;;5022533;28;20487;-62
2023/08/04 00:51:48;;;;;;;1.30;1.20;;;22.80;49.60;;;;;;5030870;28;20546;-61
2023/08/04 00:54:13;;;;;;;4.23;1.37;;;22.80;49.50;;;;;;5016097;28;20361;-62
2023/08/04 00:56:39;;;;;;;1.20;1.10;;;22.80;49.50;;;;;;5024951;28;20489;-61
2023/08/04 00:59:05;;;;;;;1.17;1.07;;;22.80;49.60;;;;;;5034301;28;20254;-62
2023/08/04 01:01:31;;;;;;;1.40;1.30;;;22.80;49.60;;;;;;5021812;28;20646;-61
2023/08/04 01:03:58;;;;;;;1.93;1.20;;;22.80;49.50;;;;;;5028966;28;20462;-62
2023/08/04 01:06:32;;;;;;;1.30;1.20;;;22.80;49.60;;;;;;5030610;28;20225;-63
2023/08/04 01:09:20;;;;;;;1.30;1.20;;;22.80;49.50;;;;;;5039965;28;20932;-62
2023/08/04 01:11:58;;;;;;;1.20;1.10;;;22.80;49.50;;;;;;5014307;28;20538;-61
2023/08/04 01:14:25;;;;;;;1.20;1.10;;;22.80;49.50;;;;;;5022268;28;20448;-63
2023/08/04 01:16:50;;;;;;;1.40;1.20;;;22.80;49.60;;;;;;5023229;28;20471;-61
2023/08/04 01:19:16;;;;;;;1.30;1.20;;;22.80;49.50;;;;;;5027890;28;20550;-61
2023/08/04 01:21:42;;;;;;;1.20;1.10;;;22.80;49.50;;;;;;5024196;28;20241;-61
2023/08/04 01:24:09;;;;;;;1.17;1.07;;;22.80;49.60;;;;;;5033144;28;20228;-61
2023/08/04 01:26:37;;;;;;;1.33;1.17;;;22.80;49.50;;;;;;5033568;28;20456;-61
2023/08/04 01:29:03;;;;;;;1.40;1.30;;;22.80;49.50;;;;;;5020065;28;20839;-62
2023/08/04 01:31:29;;;;;;;1.10;1.00;;;22.80;49.60;;;;;;5031831;28;21118;-61
2023/08/04 01:33:55;;;;;;;1.40;1.30;;;22.80;49.50;;;;;;5039543;28;20451;-62
2023/08/04 01:36:20;;;;;;;10.30;1.37;;;22.80;49.60;;;;;;5040141;28;20832;-61
2023/08/04 01:38:47;;;;;;;1.20;1.10;;;22.80;49.50;;;;;;5039194;28;20242;-61
2023/08/04 01:41:13;;;;;;;1.10;1.00;;;22.80;49.50;;;;;;5039942;28;20233;-61
2023/08/04 01:43:39;;;;;;;1.30;1.20;;;22.80;49.50;;;;;;5040305;28;21318;-61
2023/08/04 01:46:04;;;;;;;1.20;1.10;;;22.80;49.50;;;;;;5030891;28;20233;-61
2023/08/04 01:48:30;;;;;;;1.33;1.23;;;22.80;49.60;;;;;;5029795;28;20227;-61
2023/08/04 01:50:55;;;;;;;1.60;1.50;;;22.80;49.50;;;;;;5037335;28;20240;-61
2023/08/04 01:53:21;;;;;;;1.60;1.50;;;22.80;49.50;;;;;;5040885;28;20228;-61
2023/08/04 01:55:49;;;;;;;1.63;1.40;;;22.80;49.50;;;;;;5036904;28;20233;-61
2023/08/04 01:58:15;;;;;;;1.10;1.00;;;22.80;49.50;;;;;;5030109;28;20234;-61
2023/08/04 02:00:41;;;;;;;2.63;1.67;;;22.80;49.50;;;;;;5033914;28;20462;-61
2023/08/04 02:03:06;;;;;;;1.17;1.10;;;22.80;49.50;;;;;;5034125;28;20466;-61
2023/08/04 02:05:32;;;;;;;1.30;1.20;;;22.80;49.50;;;;;;5025558;28;20227;-61
2023/08/04 02:07:57;;;;;;;1.47;1.27;;;22.80;49.60;;;;;;5028507;28;20230;-61
2023/08/04 02:10:23;;;;;;;1.10;1.00;;;22.80;49.60;;;;;;5036322;28;21161;-61
2023/08/04 02:12:48;;;;;;;1.77;1.20;;;22.80;49.50;;;;;;5026998;28;20255;-60
2023/08/04 02:15:14;;;;;;;1.40;1.30;;;22.80;49.50;;;;;;5018826;28;20246;-62
2023/08/04 02:17:40;;;;;;;2.00;1.40;;;22.80;49.50;;;;;;5040059;28;20321;-61
2023/08/04 02:20:06;;;;;;;1.30;1.20;;;22.80;49.50;;;;;;5036680;28;20236;-62
2023/08/04 02:22:31;;;;;;;1.40;1.30;;;22.80;49.60;;;;;;5031470;28;20226;-62
2023/08/04 02:24:57;;;;;;;1.30;1.20;;;22.80;49.60;;;;;;5038451;28;20486;-61
2023/08/04 02:27:22;;;;;;;1.30;1.20;;;22.80;49.50;;;;;;5029572;28;20215;-61
2023/08/04 02:29:48;;;;;;;1.40;1.30;;;22.80;49.50;;;;;;5039139;28;20697;-61
2023/08/04 02:32:13;;;;;;;1.00;1.00;;;22.80;49.50;;;;;;5027264;28;20223;-62
2023/08/04 02:34:39;;;;;;;1.40;1.30;;;22.80;49.50;;;;;;5015556;28;21261;-61
2023/08/04 02:37:04;;;;;;;2.70;1.50;;;22.80;49.50;;;;;;5025921;28;20229;-61
2023/08/04 02:39:34;;;;;;;1.20;1.10;;;22.80;49.60;;;;;;5036161;28;20308;-61
2023/08/04 02:42:00;;;;;;;1.30;1.20;;;22.80;49.50;;;;;;5034540;28;20233;-61
2023/08/04 02:44:25;;;;;;;1.70;1.60;;;22.80;49.50;;;;;;5038097;28;20453;-62
2023/08/04 02:46:51;;;;;;;1.30;1.20;;;22.80;49.50;;;;;;5034276;28;20218;-61
2023/08/04 02:49:16;;;;;;;1.67;1.40;;;22.80;49.50;;;;;;5027620;28;20668;-61
2023/08/04 02:51:42;;;;;;;1.40;1.30;;;22.80;49.50;;;;;;5028002;28;20792;-61
2023/08/04 02:54:09;;;;;;;1.37;1.27;;;22.80;49.50;;;;;;5023223;28;20230;-62
2023/08/04 02:56:35;;;;;;;1.40;1.30;;;22.80;49.50;;;;;;5028453;28;20713;-62
2023/08/04 02:59:01;;;;;;;1.33;1.23;;;22.80;49.50;;;;;;5032887;28;20479;-60
2023/08/04 03:01:26;;;;;;;1.37;1.27;;;22.80;49.50;;;;;;5024725;28;20222;-62
2023/08/04 03:03:52;;;;;;;1.77;1.50;;;22.70;49.40;;;;;;5035266;28;20229;-61
2023/08/04 03:06:17;;;;;;;1.60;1.50;;;22.80;49.50;;;;;;5035997;28;20737;-61
2023/08/04 03:08:43;;;;;;;1.20;1.10;;;22.70;49.40;;;;;;5034785;28;20218;-61
2023/08/04 03:11:12;;;;;;;1.80;1.70;;;22.70;49.40;;;;;;5032122;28;20231;-61
2023/08/04 03:13:38;;;;;;;1.50;1.40;;;22.70;49.40;;;;;;5024332;28;20215;-61
2023/08/04 03:16:04;;;;;;;1.33;1.20;;;22.80;49.50;;;;;;5024294;28;21076;-60
2023/08/04 03:18:30;;;;;;;1.50;1.40;;;22.80;49.50;;;;;;5026102;28;20473;-61
2023/08/04 03:20:57;;;;;;;1.43;1.33;;;22.70;49.40;;;;;;5031961;28;20458;-61
2023/08/04 03:23:22;;;;;;;1.40;1.30;;;22.80;49.50;;;;;;5036690;28;20601;-62
2023/08/04 03:25:48;;;;;;;1.40;1.30;;;22.70;49.40;;;;;;5025249;28;20459;-61
2023/08/04 03:28:14;;;;;;;1.23;1.13;;;22.70;49.40;;;;;;5033011;28;20626;-61
2023/08/04 03:30:40;;;;;;;1.67;1.57;;;22.70;49.40;;;;;;5032688;28;20555;-61
2023/08/04 03:33:05;;;;;;;1.90;1.80;;;22.80;49.50;;;;;;5023498;28;20231;-61
2023/08/04 03:35:31;;;;;;;2.03;1.40;;;22.70;49.40;;;;;;5024530;28;20633;-61
2023/08/04 03:37:57;;;;;;;1.40;1.30;;;22.70;49.40;;;;;;5031259;28;20237;-60
2023/08/04 03:40:22;;;;;;;1.53;1.43;;;22.70;49.40;;;;;;5027521;28;20229;-61
2023/08/04 03:42:48;;;;;;;1.50;1.20;;;22.70;49.40;;;;;;5028483;28;20234;-60
2023/08/04 03:45:13;;;;;;;1.50;1.40;;;22.70;49.40;;;;;;5034505;28;20279;-61
2023/08/04 03:47:39;;;;;;;1.63;1.53;;;22.70;49.50;;;;;;5021721;28;20317;-61
2023/08/04 03:50:06;;;;;;;1.80;1.40;;;22.70;49.40;;;;;;5017180;28;20256;-61
2023/08/04 03:52:32;;;;;;;1.50;1.40;;;22.70;49.40;;;;;;5025513;28;20214;-60
2023/08/04 03:54:58;;;;;;;1.40;1.30;;;22.70;49.40;;;;;;5033645;28;20546;-60
2023/08/04 03:57:23;;;;;;;1.50;1.13;;;22.70;49.40;;;;;;5035829;28;20218;-62
2023/08/04 03:59:50;;;;;;;1.27;1.17;;;22.70;49.40;;;;;;5017143;28;20685;-62
2023/08/04 04:02:16;;;;;;;1.37;1.27;;;22.70;49.40;;;;;;5023067;28;20629;-60
2023/08/04 04:04:41;;;;;;;1.60;1.43;;;22.70;49.40;;;;;;5026194;28;20463;-61
2023/08/04 04:07:07;;;;;;;1.60;1.50;;;22.70;49.40;;;;;;5023720;28;20226;-61
2023/08/04 04:09:33;;;;;;;1.50;1.40;;;22.70;49.40;;;;;;5030772;28;20226;-61
2023/08/04 04:11:58;;;;;;;1.60;1.50;;;22.70;49.40;;;;;;5030574;28;20240;-60
2023/08/04 04:14:24;;;;;;;1.53;1.43;;;22.70;49.40;;;;;;5035635;28;20218;-63
2023/08/04 04:16:49;;;;;;;1.57;1.47;;;22.70;49.40;;;;;;5026347;28;20222;-61
2023/08/04 04:19:15;;;;;;;1.40;1.30;;;22.70;49.40;;;;;;5025612;28;20242;-61
2023/08/04 04:21:40;;;;;;;1.63;1.53;;;22.70;49.40;;;;;;5021671;28;20781;-61
2023/08/04 04:24:05;;;;;;;2.20;1.80;;;22.70;49.40;;;;;;5024385;28;20218;-61
2023/08/04 04:26:31;;;;;;;1.57;1.47;;;22.70;49.40;;;;;;5019024;28;20229;-60
2023/08/04 04:28:57;;;;;;;1.53;1.40;;;22.70;49.40;;;;;;5030504;28;20685;-62
2023/08/04 04:31:22;;;;;;;1.47;1.37;;;22.70;49.40;;;;;;5014475;28;20703;-61
2023/08/04 04:33:48;;;;;;;1.60;1.50;;;22.70;49.40;;;;;;5029406;28;20234;-60
2023/08/04 04:36:13;;;;;;;1.60;1.50;;;22.70;49.40;;;;;;5029613;28;20302;-61
2023/08/04 04:38:39;;;;;;;2.80;1.50;;;22.70;49.40;;;;;;5025107;28;20284;-62
2023/08/04 04:41:04;;;;;;;1.60;1.50;;;22.70;49.40;;;;;;5026373;28;20226;-61
2023/08/04 04:43:30;;;;;;;1.50;1.40;;;22.70;49.40;;;;;;5033220;28;20677;-62
2023/08/04 04:45:56;;;;;;;1.53;1.43;;;22.70;49.30;;;;;;5031375;28;20218;-61
2023/08/04 04:48:23;;;;;;;1.60;1.50;;;22.80;49.40;;;;;;5030685;28;20226;-62
2023/08/04 04:50:52;;;;;;;1.73;1.60;;;22.80;49.30;;;;;;5018638;28;20222;-61
2023/08/04 04:53:18;;;;;;;1.80;1.70;;;22.80;49.40;;;;;;5021269;28;20452;-63
2023/08/04 04:55:43;;;;;;;1.70;1.60;;;22.70;49.30;;;;;;5012930;28;21095;-63
2023/08/04 04:58:09;;;;;;;1.93;1.83;;;22.80;49.40;;;;;;5025161;28;20239;-63
2023/08/04 05:00:35;;;;;;;1.90;1.80;;;22.80;49.30;;;;;;5017038;28;21173;-62
2023/08/04 05:03:06;;;;;;;1.87;1.70;;;22.80;49.30;;;;;;5023846;28;20621;-62
2023/08/04 05:05:32;;;;;;;1.90;1.80;;;22.80;49.30;;;;;;5017038;28;20237;-61
2023/08/04 05:07:57;;;;;;;1.43;1.33;;;22.80;49.30;;;;;;5033894;28;20531;-61
2023/08/04 05:10:23;;;;;;;1.70;1.60;;;22.80;49.30;;;;;;5028151;28;20312;-60
2023/08/04 05:12:48;;;;;;;12.30;3.03;;;22.80;49.20;;;;;;5017598;28;20425;-62
2023/08/04 05:15:14;;;;;;;7.60;2.13;;;22.90;49.10;;;;;;5017942;28;20230;-62
2023/08/04 05:17:39;;;;;;;1.90;1.80;;;22.90;49.00;;;;;;5024453;28;20391;-63
2023/08/04 05:20:06;;;;;;;4.80;1.77;;;22.90;49.00;;;;;;5019143;28;20658;-63
2023/08/04 05:22:31;;;;;;;1.87;1.70;;;22.80;49.00;;;;;;5025611;28;20312;-63
2023/08/04 05:24:57;;;;;;;2.70;1.83;;;22.80;49.80;;;;;;5028452;28;20554;-62
2023/08/04 05:27:22;;;;;;;4.07;2.00;;;22.80;49.10;;;;;;5026618;28;20227;-63
2023/08/04 05:29:48;;;;;;;1.80;1.70;;;22.80;49.10;;;;;;5030795;28;20222;-63
2023/08/04 05:32:14;;;;;;;1.70;1.60;;;22.80;49.20;;;;;;5031684;28;20235;-63
2023/08/04 05:34:39;;;;;;;1.63;1.53;;;22.80;49.20;;;;;;5031431;28;20333;-64
2023/08/04 05:37:05;;;;;;;1.77;1.60;;;22.80;49.20;;;;;;5021891;28;20725;-63
2023/08/04 05:39:32;;;;;;;3.30;2.30;;;22.80;49.20;;;;;;5029384;28;20233;-63
2023/08/04 05:41:58;;;;;;;1.77;1.67;;;22.80;49.30;;;;;;5018987;28;20232;-63
2023/08/04 05:44:24;;;;;;;1.50;1.40;;;22.80;49.20;;;;;;5028888;28;20443;-63
2023/08/04 05:46:49;;;;;;;1.60;1.50;;;22.80;49.20;;;;;;5020834;28;20224;-63
2023/08/04 05:49:15;;;;;;;1.70;1.60;;;22.80;49.20;;;;;;5027088;28;20301;-63
2023/08/04 05:51:40;;;;;;;1.57;1.47;;;22.80;49.20;;;;;;5021278;28;20314;-63
2023/08/04 05:54:06;;;;;;;1.70;1.60;;;22.80;49.30;;;;;;5010711;28;20227;-63
2023/08/04 05:56:31;;;;;;;1.83;1.73;;;22.80;49.20;;;;;;5021409;28;20793;-63
2023/08/04 05:58:57;;;;;;;1.90;1.70;;;22.80;49.20;;;;;;5018393;28;20234;-63
2023/08/04 06:01:26;;;;;;;1.93;1.63;;;22.80;49.20;;;;;;5010451;28;20234;-63
2023/08/04 06:03:51;;;;;;;1.60;1.50;;;22.80;49.20;;;;;;5014105;28;20306;-62
2023/08/04 06:06:17;;;;;;;2.07;1.80;;;22.80;49.20;;;;;;5015086;28;20456;-63
2023/08/04 06:08:43;;;;;;;1.87;1.70;;;22.80;49.20;;;;;;5012376;28;20226;-62
2023/08/04 06:11:08;;;;;;;2.13;1.93;;;22.80;49.20;;;;;;5028531;28;20493;-63
2023/08/04 06:13:34;;;;;;;1.73;1.63;;;22.80;49.20;;;;;;5034523;28;20288;-63
2023/08/04 06:16:00;;;;;;;1.80;1.70;;;22.90;49.20;;;;;;5034979;28;20218;-63
2023/08/04 06:18:25;;;;;;;1.90;1.80;;;22.90;49.20;;;;;;5033803;28;20250;-63
2023/08/04 06:20:52;;;;;;;2.87;1.80;;;22.90;49.20;;;;;;5034708;28;20715;-63
2023/08/04 06:23:18;;;;;;;1.67;1.57;;;22.80;49.20;;;;;;5024434;28;20219;-63
2023/08/04 06:25:43;;;;;;;2.60;1.63;;;22.90;49.20;;;;;;5023952;28;21395;-62
2023/08/04 06:28:09;;;;;;;1.80;1.67;;;22.90;49.20;;;;;;5032172;28;20233;-62
2023/08/04 06:30:35;;;;;;;2.60;1.87;;;22.90;49.20;;;;;;5034474;28;20226;-62
2023/08/04 06:33:01;;;;;;;1.70;1.57;;;22.90;49.20;;;;;;5029451;28;20614;-63
2023/08/04 06:35:26;;;;;;;2.10;1.90;;;22.90;49.20;;;;;;5028440;28;20475;-62
2023/08/04 06:37:52;;;;;;;1.93;1.77;;;22.90;49.20;;;;;;5033953;28;20237;-62
2023/08/04 06:40:17;;;;;;;1.63;1.53;;;22.90;49.20;;;;;;5024599;28;20218;-63
2023/08/04 06:42:43;;;;;;;1.90;1.80;;;22.90;49.20;;;;;;5018095;28;20854;-62
2023/08/04 06:45:09;;;;;;;1.97;1.87;;;22.90;49.20;;;;;;5010511;28;20581;-63
2023/08/04 06:47:34;;;;;;;2.00;1.90;;;22.90;49.20;;;;;;5018063;28;20232;-63
2023/08/04 06:50:00;;;;;;;1.73;1.57;;;22.90;49.20;;;;;;5028876;28;20226;-63
2023/08/04 06:52:25;;;;;;;2.13;1.50;;;22.90;49.20;;;;;;5026954;28;20222;-63
2023/08/04 06:54:51;;;;;;;1.60;1.50;;;22.90;49.20;;;;;;5036840;28;20257;-63
2023/08/04 06:57:16;;;;;;;1.90;1.80;;;22.90;49.10;;;;;;5024947;28;20223;-63
2023/08/04 06:59:42;;;;;;;2.90;1.70;;;22.90;49.20;;;;;;5036244;28;20244;-63
2023/08/04 07:02:08;;;;;;;2.00;1.90;;;22.90;49.20;;;;;;5035143;28;20226;-63
2023/08/04 07:04:33;;;;;;;1.97;1.87;;;22.90;49.20;;;;;;5032245;28;20215;-63
2023/08/04 07:06:59;;;;;;;1.60;1.50;;;22.90;49.20;;;;;;5020570;28;20226;-62
2023/08/04 07:09:25;;;;;;;2.13;1.73;;;22.90;49.10;;;;;;5032869;28;20226;-63
2023/08/04 07:11:51;;;;;;;1.87;1.77;;;22.90;49.20;;;;;;5018882;28;20231;-62
2023/08/04 07:14:17;;;;;;;1.53;1.43;;;22.90;49.20;;;;;;5021575;28;20443;-62
2023/08/04 07:16:46;;;;;;;1.67;1.57;;;22.90;49.10;;;;;;5032562;28;20494;-63
2023/08/04 07:19:11;;;;;;;2.70;1.50;;;23.00;49.20;;;;;;5017801;28;20235;-63
2023/08/04 07:21:37;;;;;;;1.97;1.80;;;22.90;49.10;;;;;;5030636;28;20812;-62
2023/08/04 07:24:03;;;;;;;2.50;2.40;;;22.90;49.10;;;;;;5033796;28;20283;-62
2023/08/04 07:26:30;;;;;;;1.67;1.50;;;23.00;49.20;;;;;;5027622;28;20688;-63
2023/08/04 07:28:56;;;;;;;1.70;1.57;;;23.00;49.20;;;;;;5019788;28;20257;-63
2023/08/04 07:31:21;;;;;;;3.40;2.70;;;23.00;49.20;;;;;;5034894;28;20519;-62
2023/08/04 07:33:47;;;;;;;1.73;1.63;;;23.00;49.20;;;;;;5038258;28;20574;-63
2023/08/04 07:36:13;;;;;;;1.93;1.83;;;23.00;49.20;;;;;;5032218;28;20784;-62
2023/08/04 07:38:38;;;;;;;1.90;1.80;;;22.90;49.10;;;;;;5035878;28;20875;-62
2023/08/04 07:41:04;;;;;;;1.90;1.80;;;23.00;49.20;;;;;;5036662;28;20941;-62
2023/08/04 07:43:29;;;;;;;1.77;1.67;;;23.00;49.20;;;;;;5030738;28;20218;-62
2023/08/04 07:45:55;;;;;;;1.70;1.60;;;23.00;49.20;;;;;;5023211;28;20264;-63
2023/08/04 07:48:22;;;;;;;1.80;1.70;;;23.00;49.20;;;;;;5017073;28;20225;-63
2023/08/04 07:50:49;;;;;;;1.70;1.60;;;23.00;49.20;;;;;;5026613;28;20217;-62
2023/08/04 07:53:14;;;;;;;1.80;1.70;;;23.00;49.10;;;;;;5033133;28;21031;-63
2023/08/04 07:55:40;;;;;;;1.90;1.50;;;23.00;49.20;;;;;;5027479;28;20459;-63
2023/08/04 07:58:09;;;;;;;1.90;1.80;;;23.00;49.20;;;;;;5032396;28;20234;-62
2023/08/04 08:00:35;;;;;;;2.10;1.70;;;22.90;49.10;;;;;;5028949;28;20218;-63
2023/08/04 08:03:01;;;;;;;2.07;1.87;;;23.00;49.20;;;;;;5031670;28;20477;-62
2023/08/04 08:05:28;;;;;;;2.33;2.13;;;23.00;49.10;;;;;;5031740;28;20455;-63
2023/08/04 08:07:53;;;;;;;1.63;1.53;;;22.90;49.10;;;;;;5031546;28;20456;-62
2023/08/04 08:10:19;;;;;;;1.70;1.60;;;23.00;49.20;;;;;;5028311;28;20505;-63
2023/08/04 08:12:44;;;;;;;1.93;1.83;;;23.00;49.20;;;;;;5032280;28;20222;-62
2023/08/04 08:15:11;;;;;;;1.70;1.60;;;23.00;49.20;;;;;;5024917;28;20698;-63
2023/08/04 08:17:37;;;;;;;2.20;2.00;;;23.00;49.10;;;;;;5028143;28;20218;-62
2023/08/04 08:20:06;;;;;;;1.70;1.60;;;23.00;49.20;;;;;;5031471;28;20458;-64
2023/08/04 08:22:32;;;;;;;1.87;1.77;;;23.00;49.20;;;;;;5031997;28;20512;-63
2023/08/04 08:24:57;;;;;;;2.10;2.00;;;23.00;49.20;;;;;;5033529;28;20459;-63
2023/08/04 08:27:23;;;;;;;1.60;1.50;;;23.00;49.20;;;;;;5035689;28;20301;-62
2023/08/04 08:29:53;;;;;;;1.70;1.60;;;23.00;49.10;;;;;;5034737;28;20301;-63
2023/08/04 08:32:18;;;;;;;1.80;1.70;;;23.00;49.20;;;;;;5035845;28;20531;-62
2023/08/04 08:34:44;;;;;;;2.17;1.97;;;23.00;50.00;;;;;;5034685;28;20552;-62
2023/08/04 08:37:10;;;;;;;1.87;1.77;;;23.00;49.20;;;;;;5021884;28;20219;-63
2023/08/04 08:39:35;;;;;;;1.80;1.70;;;23.00;49.20;;;;;;5036767;28;20238;-63
2023/08/04 08:42:01;;;;;;;2.10;1.90;;;23.00;49.20;;;;;;5035717;28;20230;-62
2023/08/04 08:44:26;;;;;;;1.80;1.70;;;23.00;49.20;;;;;;5032077;28;20722;-63
2023/08/04 08:46:52;;;;;;;1.63;1.53;;;23.00;49.20;;;;;;5026994;28;20227;-63
2023/08/04 08:49:23;;;;;;;1.80;1.70;;;23.00;49.20;;;;;;5020615;28;20754;-63
2023/08/04 08:51:51;;;;;;;1.90;1.80;;;23.00;49.20;;;;;;5013600;28;20215;-63
2023/08/04 08:54:18;;;;;;;1.80;1.70;;;23.00;49.20;;;;;;5021384;28;20455;-63
2023/08/04 08:56:43;;;;;;;1.93;1.83;;;23.00;49.20;;;;;;5024555;28;20539;-63
2023/08/04 08:59:09;;;;;;;1.90;1.80;;;23.00;49.20;;;;;;5034657;28;20469;-63
2023/08/04 09:01:35;;;;;;;1.60;1.50;;;23.00;49.20;;;;;;5032671;28;20246;-63
2023/08/04 09:04:00;;;;;;;1.70;1.60;;;23.00;49.20;;;;;;5037709;28;20248;-63
2023/08/04 09:06:26;;;;;;;1.97;1.87;;;23.00;49.20;;;;;;5028264;28;20238;-63
2023/08/04 09:08:53;;;;;;;2.30;2.10;;;23.00;49.20;;;;;;5016956;28;20299;-63
2023/08/04 09:11:19;;;;;;;1.90;1.80;;;23.00;49.20;;;;;;5032106;28;21205;-63
2023/08/04 09:13:45;;;;;;;1.80;1.70;;;23.00;49.20;;;;;;5023502;28;20439;-63
2023/08/04 09:16:12;;;;;;;1.80;1.70;;;23.00;49.20;;;;;;5021764;28;20213;-63
2023/08/04 09:18:39;;;;;;;2.00;1.90;;;23.00;49.20;;;;;;5019619;28;20976;-63
2023/08/04 09:21:07;;;;;;;1.73;1.60;;;23.00;49.20;;;;;;5018435;28;20464;-63
2023/08/04 09:23:52;;;;;;;1.63;1.53;;;23.00;49.20;;;;;;5024290;28;20463;-63
2023/08/04 09:26:18;;;;;;;1.80;1.70;;;23.00;49.30;;;;;;5032322;28;20443;-63
2023/08/04 09:28:43;;;;;;;1.83;1.73;;;23.00;49.30;;;;;;5027084;28;20463;-63
2023/08/04 09:31:11;;;;;;;1.80;1.70;;;23.00;49.30;;;;;;5029083;28;20231;-62
2023/08/04 09:33:40;;;;;;;1.70;1.60;;;23.00;49.30;;;;;;5021390;28;20289;-63
2023/08/04 09:36:11;;;;;;;2.20;2.00;;;23.00;50.00;;;;;;5011989;28;20603;-63
2023/08/04 09:38:38;;;;;;;1.90;1.80;;;23.00;49.20;;;;;;5031201;28;20524;-63
2023/08/04 09:41:15;;;;;;;1.80;1.70;;;23.00;49.20;;;;;;5028699;28;20467;-63
2023/08/04 09:43:45;;;;;;;1.60;1.50;;;23.00;49.20;;;;;;5031454;28;20538;-64
2023/08/04 09:46:10;;;;;;;1.97;1.87;;;23.00;49.30;;;;;;5024424;28;20463;-63
2023/08/04 09:48:36;;;;;;;1.70;1.60;;;23.00;49.30;;;;;;5013336;28;20475;-63
2023/08/04 09:51:08;;;;;;;2.00;1.90;;;23.00;49.20;;;;;;5017637;28;20227;-63
2023/08/04 09:53:45;;;;;;;2.33;1.70;;;23.00;49.20;;;;;;5034795;28;20246;-63
2023/08/04 09:56:13;;;;;;;2.03;1.93;;;23.00;49.20;;;;;;5031640;28;20472;-63
2023/08/04 09:58:39;;;;;;;1.70;1.60;;;23.00;49.20;;;;;;5031661;28;20480;-63
2023/08/04 10:01:06;;;;;;;1.90;1.80;;;23.00;49.20;;;;;;5029800;28;20464;-63
2023/08/04 10:03:33;;;;;;;2.00;1.90;;;23.00;49.30;;;;;;5032759;28;20459;-63
2023/08/04 10:06:00;;;;;;;1.80;1.70;;;23.00;49.20;;;;;;5030818;28;20494;-62
2023/08/04 10:08:29;;;;;;;1.80;1.70;;;23.00;49.20;;;;;;5021122;28;21076;-63
2023/08/04 10:10:56;;;;;;;1.90;1.80;;;23.00;49.30;;;;;;5024028;28;20463;-63
2023/08/04 10:13:22;;;;;;;2.20;2.10;;;23.00;49.20;;;;;;5027649;28;20874;-63
2023/08/04 10:15:48;;;;;;;1.90;1.80;;;23.00;49.20;;;;;;5022135;28;20827;-63
2023/08/04 10:18:13;;;;;;;1.70;1.60;;;23.00;49.30;;;;;;5016059;28;20479;-63
2023/08/04 10:20:39;;;;;;;1.70;1.60;;;23.00;49.20;;;;;;5028181;28;20467;-62
2023/08/04 10:23:05;;;;;;;1.93;1.80;;;23.00;49.20;;;;;;5032239;28;20218;-63
2023/08/04 10:25:30;;;;;;;2.10;1.93;;;23.00;49.30;;;;;;5030980;28;20219;-63
2023/08/04 10:27:57;;;;;;;1.90;1.80;;;23.00;49.20;;;;;;5027451;28;20749;-63
2023/08/04 10:30:24;;;;;;;1.93;1.83;;;23.00;49.20;;;;;;5021537;28;20230;-63
2023/08/04 10:32:50;;;;;;;2.17;2.07;;;23.00;49.20;;;;;;5020545;28;20593;-63
2023/08/04 10:35:21;;;;;;;2.53;2.00;;;23.00;49.20;;;;;;5030150;28;21272;-62
2023/08/04 10:37:55;;;;;;;1.70;1.60;;;23.00;49.20;;;;;;5025722;28;20222;-63
2023/08/04 10:40:29;;;;;;;2.10;2.00;;;23.00;49.20;;;;;;5025014;28;20528;-63
2023/08/04 10:43:05;;;;;;;2.03;1.93;;;23.00;49.20;;;;;;5028722;28;20543;-64
2023/08/04 10:45:52;;;;;;;1.70;1.60;;;23.00;49.20;;;;;;5025871;28;21176;-63
2023/08/04 10:48:20;;;;;;;1.80;1.70;;;23.00;49.20;;;;;;5029212;28;20452;-62
2023/08/04 10:50:46;;;;;;;1.80;1.70;;;23.00;49.30;;;;;;5011559;28;20507;-63
2023/08/04 10:53:12;;;;;;;1.67;1.57;;;23.00;49.30;;;;;;5009580;28;21142;-62
2023/08/04 10:55:54;;;;;;;1.60;1.50;;;23.00;49.30;;;;;;5012172;28;20486;-63
2023/08/04 10:58:20;;;;;;;1.77;1.67;;;23.00;49.20;;;;;;5018279;28;20482;-62
2023/08/04 11:00:45;;;;;;;1.70;1.60;;;23.00;49.20;;;;;;5026168;28;20484;-62
2023/08/04 11:03:33;;;;;;;2.20;2.00;;;23.00;49.20;;;;;;5023182;28;20699;-62
2023/08/04 11:05:59;;;;;;;1.90;1.80;;;23.00;49.20;;;;;;5024486;28;20665;-62
2023/08/04 11:08:25;;;;;;;1.70;1.60;;;23.00;48.90;;;;;;5013942;28;20504;-63
2023/08/04 11:10:55;;;;;;;1.70;1.60;;;23.00;49.20;;;;;;5017505;28;21030;-62
2023/08/04 11:13:22;;;;;;;1.80;1.70;;;23.00;49.20;;;;;;5032613;28;20214;-63
2023/08/04 11:15:49;;;;;;;1.83;1.73;;;23.00;49.30;;;;;;5026952;28;20452;-63
2023/08/04 11:18:20;;;;;;;1.87;1.60;;;23.00;49.20;;;;;;5026687;28;20562;-63
2023/08/04 11:20:45;;;;;;;1.60;1.50;;;23.00;49.20;;;;;;5028288;28;20483;-63
2023/08/04 11:23:12;;;;;;;2.07;1.97;;;23.00;49.20;;;;;;5017402;28;21033;-63
2023/08/04 11:25:39;;;;;;;1.70;1.60;;;23.00;49.30;;;;;;5029468;28;20220;-63
2023/08/04 11:28:06;;;;;;;1.77;1.67;;;23.00;49.20;;;;;;5031699;28;20544;-63
2023/08/04 11:30:35;;;;;;;1.83;1.73;;;23.00;49.30;;;;;;5041650;28;21767;-62
2023/08/04 11:33:07;;;;;;;1.90;1.80;;;23.00;49.30;;;;;;5028811;28;20669;-63
2023/08/04 11:35:32;;;;;;;1.97;1.87;;;23.00;49.20;;;;;;5029819;28;20538;-63
2023/08/04 11:37:59;;;;;;;2.10;2.00;;;23.00;49.20;;;;;;5028558;28;20480;-63
2023/08/04 11:40:26;;;;;;;2.03;1.93;;;23.00;49.20;;;;;;5013062;28;20250;-63
2023/08/04 11:42:52;;;;;;;1.80;1.70;;;23.00;49.40;;;;;;5015947;28;20818;-63
2023/08/04 11:45:18;;;;;;;1.87;1.77;;;23.00;49.20;;;;;;5019754;28;20445;-62
2023/08/04 11:47:45;;;;;;;1.97;1.77;;;23.00;49.20;;;;;;5029220;28;20226;-62
2023/08/04 11:50:10;;;;;;;1.80;1.70;;;23.00;49.20;;;;;;5032384;28;20459;-63
2023/08/04 11:52:38;;;;;;;2.80;1.70;;;23.10;49.30;;;;;;5027922;28;20482;-63
2023/08/04 11:55:05;;;;;;;1.70;1.60;;;23.00;49.20;;;;;;5021035;28;20223;-64
2023/08/04 11:57:31;;;;;;;2.03;1.93;;;23.00;49.20;;;;;;5031666;28;20460;-64
2023/08/04 11:59:57;;;;;;;1.90;1.80;;;23.00;49.20;;;;;;5031977;28;20512;-64
2023/08/04 12:02:23;;;;;;;1.70;1.60;;;23.00;49.20;;;;;;5032231;28;20254;-64
2023/08/04 12:05:08;;;;;;;1.87;1.77;;;23.00;49.30;;;;;;5023878;28;20459;-63
2023/08/04 12:07:33;;;;;;;9.10;3.60;;;23.00;49.20;;;;;;5030629;28;20455;-64
2023/08/04 12:09:59;;;;;;;1.97;1.87;;;23.10;49.30;;;;;;5030652;28;20489;-64
2023/08/04 12:12:54;;;;;;;1.83;1.73;;;23.00;49.20;;;;;;5029020;28;20650;-65
2023/08/04 12:15:19;;;;;;;1.83;1.73;;;23.10;49.30;;;;;;5003003;28;20416;-63
2023/08/04 12:17:45;;;;;;;2.03;1.93;;;23.10;49.30;;;;;;5016931;28;21248;-64
2023/08/04 12:20:12;;;;;;;1.80;1.70;;;23.00;49.20;;;;;;5013154;28;20227;-64
2023/08/04 12:22:40;;;;;;;2.07;1.97;;;23.10;49.30;;;;;;5018061;28;20236;-64
2023/08/04 12:25:06;;;;;;;2.00;1.90;;;23.10;49.30;;;;;;5020523;28;20816;-64
2023/08/04 12:27:32;;;;;;;1.80;1.70;;;23.10;49.30;;;;;;5024097;28;20464;-64
2023/08/04 12:29:57;;;;;;;1.70;1.60;;;23.10;49.30;;;;;;5021992;28;20502;-64
2023/08/04 12:32:23;;;;;;;2.10;2.00;;;23.00;49.20;;;;;;5011254;28;20292;-64
2023/08/04 12:34:48;;;;;;;1.90;1.80;;;23.10;49.30;;;;;;5030028;28;20589;-63
2023/08/04 12:37:14;;;;;;;1.90;1.80;;;23.10;49.30;;;;;;5020974;28;20260;-63
2023/08/04 12:39:43;;;;;;;2.13;1.50;;;23.00;49.20;;;;;;5019432;28;20237;-63
2023/08/04 12:42:09;;;;;;;1.70;1.60;;;23.10;49.20;;;;;;5015076;28;20285;-64
2023/08/04 12:44:34;;;;;;;1.90;1.80;;;23.10;49.20;;;;;;5019731;28;20467;-64